Time;durP1;ratioP1;P1;durP2;ratioP2;P2;SDS_P1;SDS_P2;PMS_P1;PMS_P2;Temp;Humidity;BMP_temperature;BMP_pressure;BME280_temperature;BME280_humidity;BME280_pressure;Samples;Min_cycle;Max_cycle;Signal;HPM_P1;HPM_P2
2022/10/04 00:02:28;;;;;;;8.87;3.60;;;13.40;1.00;;;;;;6335353;27;20232;-54
2022/10/04 00:05:32;;;;;;;14.83;4.13;;;13.40;1.00;;;;;;6333435;27;20259;-54
2022/10/04 00:08:42;;;;;;;7.43;3.87;;;13.30;1.00;;;;;;6316373;27;20247;-54
2022/10/04 00:11:48;;;;;;;8.07;3.90;;;13.30;1.00;;;;;;6320780;27;20642;-54
2022/10/04 00:14:53;;;;;;;13.70;4.23;;;13.40;1.00;;;;;;6328310;27;20232;-54
2022/10/04 00:18:02;;;;;;;13.17;4.40;;;13.30;1.00;;;;;;6319428;27;20753;-55
2022/10/04 00:21:07;;;;;;;15.07;3.97;;;13.40;1.00;;;;;;6328018;27;20269;-53
2022/10/04 00:24:10;;;;;;;9.03;3.77;;;13.30;1.00;;;;;;6333489;27;20306;-54
2022/10/04 00:27:22;;;;;;;8.63;4.07;;;13.30;1.00;;;;;;6315640;28;20235;-53
2022/10/04 00:30:36;;;;;;;8.17;4.17;;;13.30;1.00;;;;;;6308215;28;20771;-54
2022/10/04 00:33:41;;;;;;;15.23;4.63;;;13.30;1.00;;;;;;6329225;27;20236;-54
2022/10/04 00:36:55;;;;;;;10.77;4.13;;;13.30;1.00;;;;;;6332910;27;20605;-55
2022/10/04 00:40:10;;;;;;;9.60;3.80;;;13.30;1.00;;;;;;6331364;27;20236;-54
2022/10/04 00:43:19;;;;;;;10.53;3.77;;;13.30;1.00;;;;;;6307296;28;20244;-53
2022/10/04 00:46:26;;;;;;;8.83;3.80;;;13.30;1.00;;;;;;6308885;28;20237;-55
2022/10/04 00:49:32;;;;;;;9.77;4.00;;;13.30;1.00;;;;;;6326885;27;20227;-53
2022/10/04 00:52:40;;;;;;;5.47;3.30;;;13.30;1.00;;;;;;6324601;27;20234;-53
2022/10/04 00:55:50;;;;;;;10.67;4.27;;;13.20;1.00;;;;;;6327631;27;20468;-54
2022/10/04 00:59:27;;;;;;;6.33;4.37;;;13.20;1.00;;;;;;6328828;28;20247;-55
2022/10/04 01:02:35;;;;;;;6.07;3.70;;;13.20;1.00;;;;;;6287291;28;20241;-53
2022/10/04 01:05:41;;;;;;;13.30;4.67;;;13.20;1.00;;;;;;6333381;27;20603;-55
2022/10/04 01:08:48;;;;;;;10.07;3.87;;;13.20;1.00;;;;;;6311249;28;20232;-55
2022/10/04 01:11:58;;;;;;;5.73;3.33;;;13.20;1.00;;;;;;6307464;28;20737;-54
2022/10/04 01:15:08;;;;;;;18.60;4.30;;;13.20;1.00;;;;;;6309026;28;20233;-54
2022/10/04 01:18:15;;;;;;;8.43;4.00;;;13.20;1.00;;;;;;6307559;28;20633;-53
2022/10/04 01:21:27;;;;;;;9.70;4.57;;;13.20;1.00;;;;;;6334568;27;20408;-53
2022/10/04 01:24:35;;;;;;;8.80;4.43;;;13.20;1.00;;;;;;6323415;27;20622;-53
2022/10/04 01:27:42;;;;;;;7.87;4.10;;;13.20;1.00;;;;;;6308862;28;20229;-54
2022/10/04 01:30:45;;;;;;;8.60;3.90;;;13.10;1.00;;;;;;6332361;27;20322;-54
2022/10/04 01:33:48;;;;;;;12.63;4.70;;;13.00;1.00;;;;;;6336981;27;20606;-53
2022/10/04 01:36:54;;;;;;;12.17;3.93;;;13.00;1.00;;;;;;6335569;27;20228;-54
2022/10/04 01:39:58;;;;;;;9.27;4.17;;;13.00;1.00;;;;;;6337353;28;20231;-54
2022/10/04 01:43:06;;;;;;;9.63;4.13;;;12.90;1.00;;;;;;6335936;28;20739;-54
2022/10/04 01:46:13;;;;;;;7.20;3.80;;;12.90;1.00;;;;;;6324915;27;20232;-54
2022/10/04 01:49:19;;;;;;;9.13;4.23;;;12.90;1.00;;;;;;6339270;27;20236;-53
2022/10/04 01:52:26;;;;;;;8.50;4.03;;;12.90;1.00;;;;;;6341943;27;20727;-54
2022/10/04 01:55:34;;;;;;;9.67;4.43;;;12.90;1.00;;;;;;6314733;28;20239;-54
2022/10/04 01:58:42;;;;;;;12.43;4.50;;;12.90;1.00;;;;;;6311669;28;20263;-53
2022/10/04 02:01:49;;;;;;;10.57;4.03;;;12.90;1.00;;;;;;6311917;28;20237;-54
2022/10/04 02:04:55;;;;;;;10.70;4.13;;;13.00;1.00;;;;;;6333653;27;20228;-55
2022/10/04 02:08:03;;;;;;;12.83;4.37;;;12.90;1.00;;;;;;6336641;27;20236;-54
2022/10/04 02:11:08;;;;;;;9.73;3.93;;;12.90;1.00;;;;;;6329123;27;20331;-55
2022/10/04 02:14:14;;;;;;;8.87;3.60;;;12.90;1.00;;;;;;6312339;28;20427;-53
2022/10/04 02:17:17;;;;;;;8.87;4.10;;;12.80;1.00;;;;;;6313284;27;20228;-54
2022/10/04 02:20:23;;;;;;;10.03;4.33;;;12.80;1.00;;;;;;6330738;27;20601;-53
2022/10/04 02:23:27;;;;;;;5.60;3.43;;;12.80;1.00;;;;;;6326883;27;20253;-54
2022/10/04 02:26:31;;;;;;;9.17;4.10;;;12.80;1.00;;;;;;6323219;27;20237;-54
2022/10/04 02:29:34;;;;;;;9.93;4.30;;;12.70;1.00;;;;;;6331867;27;20236;-54
2022/10/04 02:36:00;;;;;;;9.87;3.80;;;12.70;1.00;;;;;;6326621;27;20559;-54
2022/10/04 02:39:08;;;;;;;15.17;4.47;;;12.60;1.00;;;;;;6334537;27;20447;-53
2022/10/04 02:42:20;;;;;;;12.60;4.00;;;12.60;1.00;;;;;;6329728;28;20335;-55
2022/10/04 02:45:28;;;;;;;8.47;4.00;;;12.50;1.00;;;;;;6310993;28;20232;-55
2022/10/04 02:48:39;;;;;;;10.40;3.77;;;12.50;1.00;;;;;;6319974;28;20251;-55
2022/10/04 02:51:49;;;;;;;6.13;3.47;;;12.50;1.00;;;;;;6326628;27;20239;-55
2022/10/04 02:54:59;;;;;;;8.13;3.80;;;12.50;1.00;;;;;;6335814;27;20231;-54
2022/10/04 02:58:11;;;;;;;7.47;3.63;;;12.50;1.00;;;;;;6329903;27;20255;-53
2022/10/04 03:01:25;;;;;;;8.70;3.43;;;12.40;1.00;;;;;;6322625;27;20247;-54
2022/10/04 03:04:30;;;;;;;11.90;4.27;;;12.40;1.00;;;;;;6335052;27;20735;-53
2022/10/04 03:07:35;;;;;;;9.23;3.73;;;12.40;1.00;;;;;;6333741;27;20403;-54
2022/10/04 03:10:39;;;;;;;8.67;4.23;;;12.30;1.00;;;;;;6332875;27;20232;-60
2022/10/04 03:13:47;;;;;;;11.20;4.30;;;12.30;1.00;;;;;;6339599;27;20232;-55
2022/10/04 03:16:52;;;;;;;6.57;3.90;;;12.20;1.00;;;;;;6325938;27;20233;-54
2022/10/04 03:19:57;;;;;;;11.63;4.33;;;12.20;1.00;;;;;;6318806;27;20244;-54
2022/10/04 03:23:00;;;;;;;13.50;4.53;;;12.10;1.00;;;;;;6326899;27;20247;-54
2022/10/04 03:26:09;;;;;;;11.10;4.33;;;12.10;1.00;;;;;;6327912;27;20240;-58
2022/10/04 03:29:18;;;;;;;13.20;4.60;;;12.10;1.00;;;;;;6311887;28;20259;-54
2022/10/04 03:32:21;;;;;;;5.37;4.83;;;12.10;1.00;;;;;;6304445;28;20478;-54
2022/10/04 03:35:29;;;;;;;11.47;5.10;;;12.00;1.00;;;;;;6324840;27;20692;-53
2022/10/04 03:38:35;;;;;;;15.20;4.83;;;12.10;1.00;;;;;;6327372;27;20231;-53
2022/10/04 03:41:39;;;;;;;4.93;3.63;;;12.00;1.00;;;;;;6333772;27;20258;-58
2022/10/04 03:44:45;;;;;;;4.60;3.97;;;12.00;1.00;;;;;;6338048;27;20285;-54
2022/10/04 03:47:50;;;;;;;13.87;4.37;;;11.90;1.00;;;;;;6327537;27;20247;-53
2022/10/04 03:50:54;;;;;;;8.47;4.23;;;11.90;1.00;;;;;;6329175;27;20755;-53
2022/10/04 03:53:59;;;;;;;7.67;4.03;;;11.90;1.00;;;;;;6338921;27;20239;-54
2022/10/04 03:57:02;;;;;;;13.33;3.93;;;11.80;1.00;;;;;;6318303;27;20478;-54
2022/10/04 04:00:08;;;;;;;13.23;4.20;;;11.80;1.00;;;;;;6324997;27;20535;-55
2022/10/04 04:03:17;;;;;;;7.73;4.33;;;11.70;1.00;;;;;;6336652;27;20497;-54
2022/10/04 04:06:22;;;;;;;10.47;4.47;;;11.70;1.00;;;;;;6327865;28;20236;-54
2022/10/04 04:09:37;;;;;;;5.87;4.43;;;11.70;1.00;;;;;;6335590;27;20220;-55
2022/10/04 04:12:46;;;;;;;7.27;3.90;;;11.80;1.00;;;;;;6331636;27;23069;-54
2022/10/04 04:15:51;;;;;;;7.43;4.87;;;11.80;1.00;;;;;;6326901;28;20223;-54
2022/10/04 04:18:59;;;;;;;10.07;4.50;;;11.80;1.00;;;;;;6326009;27;20244;-54
2022/10/04 04:22:01;;;;;;;8.50;3.60;;;11.80;1.00;;;;;;6335343;27;20623;-54
2022/10/04 04:25:11;;;;;;;11.83;4.57;;;11.90;1.00;;;;;;6339406;27;20242;-54
2022/10/04 04:28:24;;;;;;;13.30;4.30;;;11.90;1.00;;;;;;6325537;27;20462;-54
2022/10/04 04:31:33;;;;;;;11.37;3.80;;;11.90;1.00;;;;;;6333662;27;20756;-54
2022/10/04 04:34:51;;;;;;;7.03;3.80;;;11.90;1.00;;;;;;6330006;27;20223;-53
2022/10/04 04:38:14;;;;;;;11.70;4.50;;;11.80;1.00;;;;;;6335082;27;20262;-53
2022/10/04 04:41:17;;;;;;;14.20;5.37;;;11.80;1.00;;;;;;6335770;27;20243;-53
2022/10/04 04:44:20;;;;;;;9.60;4.17;;;11.80;1.00;;;;;;6334448;27;20239;-53
2022/10/04 04:47:32;;;;;;;11.73;5.13;;;11.70;1.00;;;;;;6333280;27;20249;-54
2022/10/04 04:50:38;;;;;;;6.03;4.27;;;11.70;1.00;;;;;;6331495;27;20259;-54
2022/10/04 04:53:43;;;;;;;13.37;4.83;;;11.70;1.00;;;;;;6331077;28;20231;-53
2022/10/04 04:56:48;;;;;;;8.57;3.87;;;11.70;1.00;;;;;;6338162;27;20231;-53
2022/10/04 04:59:56;;;;;;;9.07;4.30;;;11.60;1.00;;;;;;6326420;27;20232;-55
2022/10/04 05:03:02;;;;;;;10.60;4.53;;;11.60;1.00;;;;;;6335120;27;20236;-53
2022/10/04 05:06:26;;;;;;;8.93;4.53;;;11.60;1.00;;;;;;6333881;28;20235;-53
2022/10/04 05:09:31;;;;;;;11.40;4.80;;;11.60;1.00;;;;;;6330769;27;20386;-51
2022/10/04 05:12:33;;;;;;;9.20;4.70;;;11.60;1.00;;;;;;6336691;27;20616;-54
2022/10/04 05:15:39;;;;;;;7.70;4.20;;;11.50;1.00;;;;;;6337812;27;20244;-55
2022/10/04 05:18:43;;;;;;;12.80;4.10;;;11.50;1.00;;;;;;6338408;27;20235;-53
2022/10/04 05:21:47;;;;;;;12.70;4.27;;;11.50;1.00;;;;;;6338363;27;20358;-53
2022/10/04 05:24:53;;;;;;;10.53;4.53;;;11.50;1.00;;;;;;6337711;27;20792;-55
2022/10/04 05:27:56;;;;;;;13.50;5.40;;;11.50;1.00;;;;;;6331871;27;20241;-54
2022/10/04 05:31:27;;;;;;;7.27;3.90;;;11.60;1.00;;;;;;6327482;27;20244;-54
2022/10/04 05:34:38;;;;;;;6.27;4.07;;;11.60;1.00;;;;;;6330534;27;20416;-55
2022/10/04 05:37:52;;;;;;;8.23;4.90;;;11.60;1.00;;;;;;6333674;27;20243;-53
2022/10/04 05:41:01;;;;;;;11.10;4.40;;;11.70;1.00;;;;;;6329974;27;20236;-52
2022/10/04 05:44:19;;;;;;;10.20;4.40;;;11.80;1.00;;;;;;6327015;28;20236;-55
2022/10/04 05:47:26;;;;;;;15.67;4.23;;;11.90;1.00;;;;;;6334578;27;20398;-54
2022/10/04 05:50:35;;;;;;;10.27;5.03;;;12.10;1.00;;;;;;6331603;27;20228;-54
2022/10/04 05:53:39;;;;;;;6.87;4.03;;;12.20;1.00;;;;;;6336268;27;20239;-53
2022/10/04 05:57:11;;;;;;;7.90;4.00;;;12.20;1.00;;;;;;6327622;27;20341;-55
2022/10/04 06:00:17;;;;;;;6.53;4.57;;;12.30;1.00;;;;;;6327837;27;20355;-54
2022/10/04 06:03:31;;;;;;;8.83;4.13;;;12.40;1.00;;;;;;6335087;27;20235;-54
2022/10/04 06:06:41;;;;;;;8.17;4.03;;;12.50;1.00;;;;;;6333954;27;20228;-54
2022/10/04 06:09:56;;;;;;;15.30;4.67;;;12.70;1.00;;;;;;6334510;27;20228;-54
2022/10/04 06:13:04;;;;;;;9.03;4.60;;;12.80;1.00;;;;;;6333116;27;20240;-54
2022/10/04 06:16:19;;;;;;;11.77;4.33;;;12.90;1.00;;;;;;6334048;27;20739;-57
2022/10/04 06:19:39;;;;;;;9.30;4.07;;;13.00;1.00;;;;;;6339043;27;20323;-54
2022/10/04 06:22:45;;;;;;;10.93;4.20;;;13.00;1.00;;;;;;6332229;27;20244;-53
2022/10/04 06:25:55;;;;;;;11.97;4.53;;;13.10;1.00;;;;;;6333142;27;20325;-53
2022/10/04 06:29:01;;;;;;;10.63;4.57;;;13.20;1.00;;;;;;6325996;27;20397;-53
2022/10/04 06:32:25;;;;;;;8.37;3.93;;;13.30;1.00;;;;;;6332564;27;20251;-55
2022/10/04 06:35:50;;;;;;;10.07;4.37;;;13.30;1.00;;;;;;6334316;27;20732;-55
2022/10/04 06:39:27;;;;;;;6.97;3.90;;;13.30;1.00;;;;;;6327450;27;20261;-54
2022/10/04 06:42:52;;;;;;;15.00;4.27;;;13.40;1.00;;;;;;6332163;27;20755;-53
2022/10/04 06:46:08;;;;;;;5.00;3.67;;;13.50;1.00;;;;;;6332284;27;20623;-53
2022/10/04 06:49:34;;;;;;;7.37;4.00;;;13.50;1.00;;;;;;6334769;27;20224;-54
2022/10/04 06:52:53;;;;;;;7.60;4.30;;;13.60;1.00;;;;;;6331010;27;20839;-54
2022/10/04 06:56:20;;;;;;;6.47;3.90;;;13.50;1.00;;;;;;6329657;27;20590;-55
2022/10/04 06:59:41;;;;;;;9.40;4.20;;;13.50;1.00;;;;;;6319928;27;20370;-54
2022/10/04 07:02:48;;;;;;;5.80;4.00;;;13.50;1.00;;;;;;6330245;27;20271;-54
2022/10/04 07:05:57;;;;;;;5.67;3.93;;;13.40;1.00;;;;;;6331392;27;20322;-52
2022/10/04 07:09:04;;;;;;;11.07;4.33;;;13.40;1.00;;;;;;6333277;27;20548;-55
2022/10/04 07:12:16;;;;;;;8.70;4.27;;;13.40;1.00;;;;;;6331711;27;20244;-54
2022/10/04 07:15:23;;;;;;;13.50;4.83;;;13.40;1.00;;;;;;6336536;27;20231;-53
2022/10/04 07:18:31;;;;;;;8.33;3.97;;;13.40;1.00;;;;;;6334310;27;20242;-59
2022/10/04 07:21:39;;;;;;;5.90;4.20;;;13.40;1.00;;;;;;6337908;27;20239;-53
2022/10/04 07:24:57;;;;;;;9.13;4.40;;;13.50;1.00;;;;;;6327522;27;20227;-54
2022/10/04 07:31:35;;;;;;;6.80;4.33;;;13.60;1.00;;;;;;6333225;27;20254;-53
2022/10/04 07:34:44;;;;;;;11.50;4.73;;;13.70;1.00;;;;;;6338331;27;20289;-55
2022/10/04 07:37:53;;;;;;;6.50;3.80;;;13.70;1.00;;;;;;6332970;27;20284;-52
2022/10/04 07:41:07;;;;;;;12.50;4.70;;;13.80;1.00;;;;;;6325032;27;20232;-54
2022/10/04 07:44:19;;;;;;;10.67;4.70;;;13.80;1.00;;;;;;6321988;28;20290;-54
2022/10/04 07:47:26;;;;;;;10.20;4.53;;;13.80;1.00;;;;;;6333326;27;20700;-53
2022/10/04 07:50:35;;;;;;;8.33;4.90;;;13.70;1.00;;;;;;6333387;27;20243;-54
2022/10/04 07:53:43;;;;;;;11.03;4.97;;;13.80;1.00;;;;;;6328084;27;20231;-54
2022/10/04 07:56:53;;;;;;;6.67;4.80;;;13.80;1.00;;;;;;6323187;27;20471;-53
2022/10/04 08:00:04;;;;;;;10.77;5.33;;;13.80;1.00;;;;;;6337425;27;20313;-54
2022/10/04 08:03:21;;;;;;;12.07;5.40;;;13.80;1.00;;;;;;6326989;28;20380;-52
2022/10/04 08:06:34;;;;;;;8.13;4.80;;;13.80;1.00;;;;;;6326316;28;20232;-54
2022/10/04 08:09:48;;;;;;;7.07;5.50;;;13.70;1.00;;;;;;6332706;27;20712;-51
2022/10/04 08:12:57;;;;;;;10.23;5.17;;;13.80;1.00;;;;;;6326314;28;20251;-53
2022/10/04 08:16:04;;;;;;;6.93;4.97;;;13.80;1.00;;;;;;6334689;27;20239;-54
2022/10/04 08:19:24;;;;;;;7.47;5.50;;;13.80;1.00;;;;;;6337059;27;20448;-55
2022/10/04 08:22:34;;;;;;;5.77;5.23;;;13.80;1.00;;;;;;6335178;27;20649;-52
2022/10/04 08:25:47;;;;;;;10.13;5.50;;;13.90;1.00;;;;;;6337955;27;20243;-54
2022/10/04 08:32:31;;;;;;;8.37;5.73;;;14.00;1.00;;;;;;6327497;27;20243;-54
2022/10/04 08:35:38;;;;;;;11.07;6.10;;;14.20;1.00;;;;;;6330578;27;20287;-55
2022/10/04 08:38:46;;;;;;;7.60;6.07;;;14.50;1.00;;;;;;6331795;27;20601;-53
2022/10/04 08:42:24;;;;;;;6.03;5.50;;;14.60;1.00;;;;;;6327323;27;20474;-52
2022/10/04 08:46:23;;;;;;;15.80;7.67;;;14.70;1.00;;;;;;6318936;28;20224;-54
2022/10/04 08:49:53;;;;;;;7.30;6.40;;;14.70;1.00;;;;;;6248425;28;20444;-52
2022/10/04 08:53:27;;;;;;;13.00;6.53;;;14.80;1.00;;;;;;6320413;27;20579;-52
2022/10/04 08:56:57;;;;;;;9.93;6.73;;;14.90;1.00;;;;;;6332278;27;20577;-53
2022/10/04 09:00:20;;;;;;;7.83;6.80;;;14.90;1.00;;;;;;6343555;27;20687;-53
2022/10/04 09:04:12;;;;;;;8.70;6.40;;;15.00;1.00;;;;;;6330372;28;20232;-53
2022/10/04 09:07:51;;;;;;;6.40;5.80;;;15.30;1.00;;;;;;6323746;27;20228;-53
2022/10/04 09:11:24;;;;;;;8.90;6.10;;;15.60;1.00;;;;;;6330141;27;20717;-53
2022/10/04 09:14:50;;;;;;;6.03;5.37;;;15.70;1.00;;;;;;6330307;28;20224;-53
2022/10/04 09:17:57;;;;;;;6.27;5.10;;;15.80;1.00;;;;;;6330893;28;20236;-52
2022/10/04 09:21:09;;;;;;;6.63;5.43;;;15.90;1.00;;;;;;6335833;27;20236;-54
2022/10/04 09:24:42;;;;;;;8.03;4.93;;;15.90;1.00;;;;;;6324664;27;20229;-54
2022/10/04 09:28:16;;;;;;;6.10;4.63;;;15.90;1.00;;;;;;6328665;27;20425;-52
2022/10/04 09:31:52;;;;;;;5.73;4.10;;;16.00;1.00;;;;;;6299085;27;20472;-54
2022/10/04 09:35:22;;;;;;;4.77;4.40;;;16.10;1.00;;;;;;6299630;27;20712;-53
2022/10/04 09:38:49;;;;;;;5.73;4.03;;;16.20;1.00;;;;;;6326573;27;20489;-54
2022/10/04 09:42:45;;;;;;;5.40;4.27;;;16.20;1.00;;;;;;6329136;28;20243;-53
2022/10/04 09:46:03;;;;;;;5.00;4.60;;;16.20;1.00;;;;;;6330403;28;20228;-52
2022/10/04 09:49:21;;;;;;;5.90;4.30;;;15.90;1.00;;;;;;6325348;28;20228;-54
2022/10/04 09:52:38;;;;;;;6.20;4.17;;;15.90;1.00;;;;;;6333700;27;20236;-54
2022/10/04 09:55:51;;;;;;;5.23;3.87;;;15.90;1.00;;;;;;6337450;27;20396;-53
2022/10/04 09:59:34;;;;;;;4.43;4.03;;;16.00;1.00;;;;;;6328856;27;20667;-52
2022/10/04 10:03:18;;;;;;;3.80;3.50;;;16.00;1.00;;;;;;6297892;27;20232;-53
2022/10/04 10:06:45;;;;;;;3.80;3.20;;;16.00;1.00;;;;;;6332988;27;20235;-53
2022/10/04 10:13:41;;;;;;;4.47;3.43;;;16.40;1.00;;;;;;6326747;27;20299;-53
2022/10/04 10:16:59;;;;;;;4.80;3.50;;;16.50;1.00;;;;;;6332175;27;20613;-53
2022/10/04 10:20:25;;;;;;;3.57;3.07;;;16.60;1.00;;;;;;6335446;27;20243;-52
2022/10/04 10:23:46;;;;;;;3.57;3.27;;;16.70;1.00;;;;;;6341821;27;20232;-52
2022/10/04 10:27:06;;;;;;;6.93;3.47;;;16.80;1.00;;;;;;6334089;27;20251;-53
2022/10/04 10:30:22;;;;;;;7.73;3.63;;;16.80;1.00;;;;;;6335140;27;20231;-54
2022/10/04 10:33:46;;;;;;;3.60;3.30;;;16.70;1.00;;;;;;6328950;27;20323;-53
2022/10/04 10:37:12;;;;;;;5.70;3.63;;;16.70;1.00;;;;;;6333641;27;20236;-52
2022/10/04 10:40:47;;;;;;;5.80;3.70;;;16.60;1.00;;;;;;6320073;27;20633;-53
2022/10/04 10:44:02;;;;;;;5.23;3.30;;;16.70;1.00;;;;;;6327245;28;20666;-54
2022/10/04 10:47:22;;;;;;;4.83;3.73;;;16.70;1.00;;;;;;6337191;27;20607;-54
2022/10/04 10:51:01;;;;;;;7.27;3.40;;;16.60;1.00;;;;;;6327913;27;20373;-52
2022/10/04 10:54:41;;;;;;;8.50;3.20;;;16.80;1.00;;;;;;6338090;27;20228;-54
2022/10/04 10:58:15;;;;;;;5.87;3.50;;;16.90;1.00;;;;;;6330359;27;20820;-55
2022/10/04 11:01:49;;;;;;;6.37;3.40;;;17.10;1.00;;;;;;6327230;27;20607;-51
2022/10/04 11:05:00;;;;;;;7.63;3.80;;;17.20;1.00;;;;;;6310704;27;20378;-52
2022/10/04 11:08:21;;;;;;;4.80;3.20;;;17.10;1.00;;;;;;6326394;27;20246;-52
2022/10/04 11:11:47;;;;;;;4.90;3.67;;;17.10;1.00;;;;;;6327268;27;20235;-55
2022/10/04 11:15:39;;;;;;;5.53;3.53;;;17.00;1.00;;;;;;6339081;27;20232;-55
2022/10/04 11:19:28;;;;;;;6.23;3.90;;;17.00;1.00;;;;;;6281863;28;20321;-54
2022/10/04 11:23:17;;;;;;;7.23;3.73;;;17.10;1.00;;;;;;6328594;27;20240;-54
2022/10/04 11:26:57;;;;;;;7.67;4.07;;;17.40;1.00;;;;;;6335052;27;20243;-54
2022/10/04 11:30:16;;;;;;;5.60;3.40;;;17.60;1.00;;;;;;6327111;28;20239;-53
2022/10/04 11:33:45;;;;;;;3.80;3.40;;;17.60;1.00;;;;;;6327198;27;20523;-52
2022/10/04 11:37:09;;;;;;;5.53;3.50;;;17.70;1.00;;;;;;6336393;27;22436;-54
2022/10/04 11:40:28;;;;;;;6.67;3.73;;;17.80;1.00;;;;;;6323900;27;20424;-54
2022/10/04 11:43:54;;;;;;;5.23;3.30;;;17.80;1.00;;;;;;6336062;27;20634;-53
2022/10/04 11:47:09;;;;;;;8.03;3.73;;;17.40;1.00;;;;;;6332144;27;20453;-54
2022/10/04 11:50:42;;;;;;;5.73;3.43;;;17.30;1.00;;;;;;6334950;27;20352;-53
2022/10/04 11:54:06;;;;;;;4.17;3.23;;;17.20;1.00;;;;;;6300356;27;20387;-53
2022/10/04 11:57:31;;;;;;;5.27;3.40;;;17.20;1.00;;;;;;6328186;28;20743;-54
2022/10/04 12:01:02;;;;;;;7.73;3.70;;;17.10;1.00;;;;;;6332499;27;20246;-53
2022/10/04 12:04:37;;;;;;;7.10;3.40;;;17.20;1.00;;;;;;6333104;27;20703;-53
2022/10/04 12:07:56;;;;;;;5.67;3.50;;;17.20;1.00;;;;;;6329879;27;20277;-52
2022/10/04 12:12:35;;;;;;;7.73;3.83;;;17.20;1.00;;;;;;6330115;27;20233;-53
2022/10/04 12:15:10;;;;;;;8.67;3.60;;;17.20;1.00;;;;;;6328283;27;20242;-53
2022/10/04 12:18:54;;;;;;;5.17;3.50;;;17.30;1.00;;;;;;6332093;28;20250;-53
2022/10/04 12:22:26;;;;;;;4.47;3.00;;;17.30;1.00;;;;;;6336360;27;20243;-53
2022/10/04 12:26:01;;;;;;;4.53;3.50;;;17.40;1.00;;;;;;6328452;27;20222;-54
2022/10/04 12:29:31;;;;;;;6.47;3.30;;;17.50;1.00;;;;;;6320317;27;20737;-53
2022/10/04 12:32:40;;;;;;;5.03;3.27;;;17.70;1.00;;;;;;6328299;27;20642;-52
2022/10/04 12:35:58;;;;;;;3.40;3.10;;;17.90;1.00;;;;;;6330446;27;20275;-52
2022/10/04 12:39:27;;;;;;;6.47;3.10;;;17.90;1.00;;;;;;6332060;27;20398;-55
2022/10/04 12:42:42;;;;;;;7.97;3.27;;;17.90;1.00;;;;;;6327318;28;20223;-52
2022/10/04 12:45:58;;;;;;;5.87;3.43;;;18.00;1.00;;;;;;6332108;28;20232;-53
2022/10/04 12:49:12;;;;;;;6.77;3.50;;;18.00;1.00;;;;;;6332017;28;20224;-53
2022/10/04 12:52:18;;;;;;;4.23;2.90;;;18.00;1.00;;;;;;6325477;27;20243;-52
2022/10/04 12:55:41;;;;;;;5.27;2.83;;;17.90;1.00;;;;;;6332919;28;20223;-53
2022/10/04 12:59:04;;;;;;;3.90;3.03;;;17.90;1.00;;;;;;6325966;28;20255;-53
2022/10/04 13:02:21;;;;;;;6.57;3.43;;;17.90;1.00;;;;;;6329546;27;20630;-53
2022/10/04 13:05:29;;;;;;;3.27;3.03;;;17.90;1.00;;;;;;6330823;28;20232;-54
2022/10/04 13:08:49;;;;;;;5.10;2.80;;;17.90;1.00;;;;;;6332323;27;20220;-53
2022/10/04 13:12:04;;;;;;;5.80;3.27;;;18.00;1.00;;;;;;6328582;28;20239;-54
2022/10/04 13:15:28;;;;;;;8.73;3.27;;;18.00;1.00;;;;;;6323924;28;20386;-53
2022/10/04 13:18:58;;;;;;;4.50;2.77;;;18.00;1.00;;;;;;6325533;27;20718;-53
2022/10/04 13:22:17;;;;;;;5.10;3.07;;;18.00;1.00;;;;;;6327600;27;20236;-53
2022/10/04 13:25:55;;;;;;;9.03;3.00;;;18.00;1.00;;;;;;6330924;27;20377;-54
2022/10/04 13:29:15;;;;;;;3.40;3.07;;;18.00;1.00;;;;;;6326778;28;20706;-53
2022/10/04 13:32:26;;;;;;;3.10;2.80;;;17.90;1.00;;;;;;6331092;27;20707;-53
2022/10/04 13:35:35;;;;;;;4.10;3.00;;;17.70;1.00;;;;;;6333608;27;20242;-54
2022/10/04 13:39:06;;;;;;;2.80;2.60;;;17.70;1.00;;;;;;6333416;27;20224;-54
2022/10/04 13:42:23;;;;;;;7.23;2.97;;;17.70;1.00;;;;;;6336863;27;20247;-52
2022/10/04 13:45:46;;;;;;;7.30;2.80;;;17.80;1.00;;;;;;6335534;28;20623;-54
2022/10/04 13:48:59;;;;;;;9.53;3.17;;;17.90;1.00;;;;;;6328105;27;20482;-54
2022/10/04 13:59:07;;;;;;;6.77;2.90;;;18.30;1.00;;;;;;6334030;27;20505;-53
2022/10/04 14:02:37;;;;;;;5.97;2.87;;;18.30;1.00;;;;;;6329572;27;20235;-54
2022/10/04 14:06:18;;;;;;;5.60;2.63;;;18.20;1.00;;;;;;6337379;27;20240;-53
2022/10/04 14:10:03;;;;;;;5.50;2.63;;;18.10;1.00;;;;;;6325882;27;20685;-53
2022/10/04 14:13:37;;;;;;;2.90;2.30;;;18.20;1.00;;;;;;6310485;27;20236;-53
2022/10/04 14:17:09;;;;;;;4.60;2.60;;;18.30;1.00;;;;;;6337626;27;20263;-53
2022/10/04 14:21:03;;;;;;;4.20;2.60;;;18.40;1.00;;;;;;6336651;27;20239;-53
2022/10/04 14:24:39;;;;;;;2.73;2.50;;;18.40;1.00;;;;;;6334643;27;20246;-54
2022/10/04 14:28:09;;;;;;;3.73;2.37;;;18.50;1.00;;;;;;6330920;27;20251;-54
2022/10/04 14:31:25;;;;;;;2.97;2.20;;;18.40;1.00;;;;;;6332819;27;20819;-52
2022/10/04 14:34:55;;;;;;;2.57;2.37;;;18.40;1.00;;;;;;6336253;27;20238;-53
2022/10/04 14:38:35;;;;;;;4.67;2.30;;;18.20;1.00;;;;;;6329554;27;20386;-54
2022/10/04 14:42:05;;;;;;;2.50;2.30;;;18.10;1.00;;;;;;6322127;28;20244;-53
2022/10/04 14:45:20;;;;;;;5.23;2.87;;;18.10;1.00;;;;;;6328091;27;20244;-52
2022/10/04 14:48:50;;;;;;;2.77;2.60;;;18.00;1.00;;;;;;6328039;27;20303;-53
2022/10/04 14:52:07;;;;;;;4.97;2.80;;;18.00;1.00;;;;;;6333703;27;20247;-53
2022/10/04 14:55:21;;;;;;;2.60;2.13;;;17.90;1.00;;;;;;6331228;27;20289;-53
2022/10/04 14:58:39;;;;;;;2.70;2.50;;;17.70;1.00;;;;;;6333946;27;20459;-54
2022/10/04 15:02:06;;;;;;;3.90;2.20;;;17.70;1.00;;;;;;6339650;27;20782;-53
2022/10/04 15:05:30;;;;;;;4.77;2.50;;;17.70;1.00;;;;;;6338466;27;20236;-54
2022/10/04 15:09:06;;;;;;;4.07;3.00;;;17.60;1.00;;;;;;6335420;27;20236;-54
2022/10/04 15:12:39;;;;;;;2.67;2.40;;;17.50;1.00;;;;;;6336734;27;20605;-53
2022/10/04 15:16:10;;;;;;;6.53;2.90;;;17.30;1.00;;;;;;6312977;27;20263;-54
2022/10/04 15:19:26;;;;;;;4.27;2.90;;;17.20;1.00;;;;;;6327428;27;20333;-53
2022/10/04 15:22:39;;;;;;;4.40;3.97;;;17.20;1.00;;;;;;6338130;27;20250;-53
2022/10/04 15:25:45;;;;;;;3.73;3.47;;;17.10;1.00;;;;;;6333896;27;20392;-53
2022/10/04 15:29:04;;;;;;;3.03;2.73;;;17.10;1.00;;;;;;6329311;27;20374;-52
2022/10/04 15:32:20;;;;;;;3.63;3.30;;;17.10;1.00;;;;;;6331847;28;20247;-53
2022/10/04 15:35:33;;;;;;;3.13;2.57;;;17.00;1.00;;;;;;6327709;27;20228;-54
2022/10/04 15:38:44;;;;;;;4.20;2.67;;;17.00;1.00;;;;;;6326925;27;20228;-52
2022/10/04 15:41:52;;;;;;;2.80;2.23;;;16.90;1.00;;;;;;6328636;27;20236;-53
2022/10/04 15:45:29;;;;;;;2.77;2.40;;;16.90;1.00;;;;;;6337369;27;20248;-52
2022/10/04 15:49:02;;;;;;;4.20;3.80;;;16.80;1.00;;;;;;6331905;27;20428;-54
2022/10/04 15:52:42;;;;;;;3.40;3.20;;;16.70;1.00;;;;;;6331675;28;20722;-54
2022/10/04 15:56:01;;;;;;;3.87;3.03;;;16.60;1.00;;;;;;6314900;28;20410;-54
2022/10/04 15:59:38;;;;;;;7.27;3.50;;;16.50;1.00;;;;;;6330308;27;20232;-54
2022/10/04 16:02:58;;;;;;;4.30;4.00;;;16.40;1.00;;;;;;6337049;27;20243;-53
2022/10/04 16:06:06;;;;;;;7.67;3.93;;;16.30;1.00;;;;;;6328017;27;20378;-52
2022/10/04 16:09:19;;;;;;;5.20;3.67;;;16.30;1.00;;;;;;6336427;27;20805;-53
2022/10/04 16:12:26;;;;;;;4.13;3.20;;;16.20;1.00;;;;;;6332641;27;20322;-52
2022/10/04 16:15:34;;;;;;;3.53;3.27;;;16.20;1.00;;;;;;6332344;27;20235;-52
2022/10/04 16:18:51;;;;;;;6.30;4.47;;;16.10;1.00;;;;;;6326609;27;20250;-53
2022/10/04 16:22:07;;;;;;;5.43;4.43;;;16.00;1.00;;;;;;6319562;27;20616;-53
2022/10/04 16:25:37;;;;;;;4.97;4.50;;;15.90;1.00;;;;;;6330768;28;20263;-52
2022/10/04 16:28:55;;;;;;;7.33;3.97;;;15.90;1.00;;;;;;6335737;27;20220;-53
2022/10/04 16:32:03;;;;;;;9.33;7.73;;;15.80;1.00;;;;;;6331315;27;20241;-54
2022/10/04 16:35:17;;;;;;;5.03;3.87;;;15.80;1.00;;;;;;6325482;27;20947;-54
2022/10/04 16:38:24;;;;;;;4.73;4.03;;;15.70;1.00;;;;;;6325189;28;20721;-54
2022/10/04 16:41:38;;;;;;;5.00;4.50;;;15.70;1.00;;;;;;6331248;27;20251;-52
2022/10/04 16:44:50;;;;;;;5.37;4.83;;;15.70;1.00;;;;;;6331248;27;20228;-54
2022/10/04 16:47:57;;;;;;;5.83;5.20;;;15.50;1.00;;;;;;6329281;28;20744;-53
2022/10/04 16:51:26;;;;;;;9.33;5.90;;;15.50;1.00;;;;;;6333357;27;20244;-53
2022/10/04 16:54:48;;;;;;;6.93;6.23;;;15.40;1.00;;;;;;6332989;27;20291;-55
2022/10/04 16:58:24;;;;;;;8.47;6.83;;;15.30;1.00;;;;;;6331642;27;20232;-53
2022/10/04 17:01:55;;;;;;;7.20;6.50;;;15.30;1.00;;;;;;6336934;27;20239;-52
2022/10/04 17:05:30;;;;;;;9.50;7.30;;;15.20;1.00;;;;;;6339606;27;20603;-53
2022/10/04 17:09:01;;;;;;;11.57;8.70;;;15.10;1.00;;;;;;6335420;27;20601;-52
2022/10/04 17:12:17;;;;;;;9.10;7.80;;;15.10;1.00;;;;;;6336042;27;20236;-56
2022/10/04 17:15:47;;;;;;;11.33;7.73;;;15.00;1.00;;;;;;6332491;27;20259;-54
2022/10/04 17:18:54;;;;;;;7.37;6.60;;;14.90;1.00;;;;;;6333585;27;20232;-52
2022/10/04 17:22:06;;;;;;;7.43;5.80;;;14.80;1.00;;;;;;6339348;27;20251;-52
2022/10/04 17:25:26;;;;;;;6.37;5.83;;;14.80;1.00;;;;;;6338197;27;20227;-53
2022/10/04 17:28:33;;;;;;;9.87;5.80;;;14.70;1.00;;;;;;6330599;28;20232;-53
2022/10/04 17:31:48;;;;;;;5.90;5.40;;;14.70;1.00;;;;;;6332688;27;20240;-53
2022/10/04 17:35:12;;;;;;;5.80;5.13;;;14.60;1.00;;;;;;6335808;27;20217;-53
2022/10/04 17:38:20;;;;;;;9.10;7.67;;;14.50;1.00;;;;;;6328348;27;20233;-53